sensor_id;sensor_type;location;lat;lon;timestamp;pressure;altitude;pressure_sealevel;temperature;humidity
18509;BME280;9383;50.928;12.116;2023-11-19T00:00:07;98674.72;;;3.84;100.00
18509;BME280;9383;50.928;12.116;2023-11-19T00:02:41;98577.59;;;3.21;100.00
18509;BME280;9383;50.928;12.116;2023-11-19T00:05:10;98670.38;;;3.81;100.00
18509;BME280;9383;50.928;12.116;2023-11-19T00:07:39;98661.66;;;3.80;100.00
18509;BME280;9383;50.928;12.116;2023-11-19T00:10:14;98631.31;;;3.59;100.00
18509;BME280;9383;50.928;12.116;2023-11-19T00:12:47;98558.34;;;3.23;100.00
18509;BME280;9383;50.928;12.116;2023-11-19T00:15:14;98663.41;;;3.78;100.00
18509;BME280;9383;50.928;12.116;2023-11-19T00:17:42;98664.25;;;3.82;100.00
18509;BME280;9383;50.928;12.116;2023-11-19T00:20:13;98549.66;;;3.23;100.00
18509;BME280;9383;50.928;12.116;2023-11-19T00:22:40;98550.53;;;3.20;100.00
18509;BME280;9383;50.928;12.116;2023-11-19T00:25:08;98656.44;;;3.77;100.00
18509;BME280;9383;50.928;12.116;2023-11-19T00:27:36;98630.34;;;3.68;100.00
18509;BME280;9383;50.928;12.116;2023-11-19T00:30:05;98632.84;;;3.77;100.00
18509;BME280;9383;50.928;12.116;2023-11-19T00:32:32;98589.44;;;3.55;100.00
18509;BME280;9383;50.928;12.116;2023-11-19T00:34:59;98573.69;;;3.58;100.00
18509;BME280;9383;50.928;12.116;2023-11-19T00:37:25;98424.53;;;2.73;100.00
18509;BME280;9383;50.928;12.116;2023-11-19T00:39:51;98511.94;;;3.36;100.00
18509;BME280;9383;50.928;12.116;2023-11-19T00:42:18;98491.97;;;3.24;100.00
18509;BME280;9383;50.928;12.116;2023-11-19T00:44:44;98484.06;;;3.28;100.00
18509;BME280;9383;50.928;12.116;2023-11-19T00:47:12;98548.94;;;3.77;100.00
18509;BME280;9383;50.928;12.116;2023-11-19T00:49:38;98510.91;;;3.47;100.00
18509;BME280;9383;50.928;12.116;2023-11-19T00:52:04;98469.06;;;3.41;100.00
18509;BME280;9383;50.928;12.116;2023-11-19T00:54:30;98561.81;;;3.96;100.00
18509;BME280;9383;50.928;12.116;2023-11-19T00:56:56;98506.38;;;3.60;100.00
18509;BME280;9383;50.928;12.116;2023-11-19T00:59:22;98457.69;;;3.43;100.00
18509;BME280;9383;50.928;12.116;2023-11-19T01:01:49;98453.38;;;3.39;100.00
18509;BME280;9383;50.928;12.116;2023-11-19T01:04:15;98537.19;;;4.06;100.00
18509;BME280;9383;50.928;12.116;2023-11-19T01:06:41;98527.50;;;4.10;100.00
18509;BME280;9383;50.928;12.116;2023-11-19T01:09:08;98535.34;;;4.13;100.00
18509;BME280;9383;50.928;12.116;2023-11-19T01:11:35;98419.09;;;3.55;100.00
18509;BME280;9383;50.928;12.116;2023-11-19T01:14:01;98515.13;;;4.18;100.00
18509;BME280;9383;50.928;12.116;2023-11-19T01:16:27;98399.69;;;3.66;100.00
18509;BME280;9383;50.928;12.116;2023-11-19T01:18:53;98351.97;;;3.46;100.00
18509;BME280;9383;50.928;12.116;2023-11-19T01:21:20;98411.38;;;4.00;100.00
18509;BME280;9383;50.928;12.116;2023-11-19T01:23:49;98396.66;;;3.91;100.00
18509;BME280;9383;50.928;12.116;2023-11-19T01:26:15;98445.09;;;4.24;100.00
18509;BME280;9383;50.928;12.116;2023-11-19T01:28:41;98312.56;;;3.52;100.00
18509;BME280;9383;50.928;12.116;2023-11-19T01:31:15;98425.88;;;4.21;100.00
18509;BME280;9383;50.928;12.116;2023-11-19T01:33:41;98389.44;;;4.06;100.00
18509;BME280;9383;50.928;12.116;2023-11-19T01:36:08;98438.00;;;4.30;100.00
18509;BME280;9383;50.928;12.116;2023-11-19T01:38:36;98449.13;;;4.42;100.00
18509;BME280;9383;50.928;12.116;2023-11-19T01:41:02;98359.19;;;3.85;100.00
18509;BME280;9383;50.928;12.116;2023-11-19T01:43:34;98350.44;;;3.86;100.00
18509;BME280;9383;50.928;12.116;2023-11-19T01:46:02;98416.09;;;4.31;100.00
18509;BME280;9383;50.928;12.116;2023-11-19T01:48:30;98424.06;;;4.25;100.00
18509;BME280;9383;50.928;12.116;2023-11-19T01:50:58;98420.47;;;4.32;100.00
18509;BME280;9383;50.928;12.116;2023-11-19T01:53:25;98416.78;;;4.43;100.00
18509;BME280;9383;50.928;12.116;2023-11-19T01:55:52;98217.00;;;3.21;100.00
18509;BME280;9383;50.928;12.116;2023-11-19T01:58:19;98299.06;;;3.75;100.00
18509;BME280;9383;50.928;12.116;2023-11-19T02:00:45;98424.34;;;4.58;100.00
18509;BME280;9383;50.928;12.116;2023-11-19T02:03:14;98326.50;;;4.04;100.00
18509;BME280;9383;50.928;12.116;2023-11-19T02:05:40;98331.59;;;4.14;100.00
18509;BME280;9383;50.928;12.116;2023-11-19T02:08:07;98412.78;;;4.69;100.00
18509;BME280;9383;50.928;12.116;2023-11-19T02:10:34;98279.56;;;3.92;100.00
18509;BME280;9383;50.928;12.116;2023-11-19T02:13:01;98403.03;;;4.74;100.00
18509;BME280;9383;50.928;12.116;2023-11-19T02:15:28;98393.38;;;4.76;100.00
18509;BME280;9383;50.928;12.116;2023-11-19T02:17:55;98344.94;;;4.47;100.00
18509;BME280;9383;50.928;12.116;2023-11-19T02:20:21;98380.31;;;4.73;100.00
18509;BME280;9383;50.928;12.116;2023-11-19T02:22:48;98311.84;;;4.40;100.00
18509;BME280;9383;50.928;12.116;2023-11-19T02:25:30;98375.63;;;4.87;100.00
18509;BME280;9383;50.928;12.116;2023-11-19T02:28:03;98258.69;;;4.31;100.00
18509;BME280;9383;50.928;12.116;2023-11-19T02:30:30;98358.88;;;4.95;100.00
18509;BME280;9383;50.928;12.116;2023-11-19T02:32:59;98078.84;;;3.33;100.00
18509;BME280;9383;50.928;12.116;2023-11-19T02:35:32;98340.31;;;5.01;100.00
18509;BME280;9383;50.928;12.116;2023-11-19T02:38:01;98334.16;;;5.03;100.00
18509;BME280;9383;50.928;12.116;2023-11-19T02:40:30;98326.19;;;5.06;100.00
18509;BME280;9383;50.928;12.116;2023-11-19T02:42:57;98230.03;;;4.61;100.00
18509;BME280;9383;50.928;12.116;2023-11-19T02:45:25;98180.72;;;4.35;100.00
18509;BME280;9383;50.928;12.116;2023-11-19T02:47:52;98257.75;;;4.73;100.00
18509;BME280;9383;50.928;12.116;2023-11-19T02:50:20;98213.53;;;4.56;100.00
18509;BME280;9383;50.928;12.116;2023-11-19T02:52:56;98202.88;;;4.62;100.00
18509;BME280;9383;50.928;12.116;2023-11-19T02:55:23;98281.13;;;5.24;100.00
18509;BME280;9383;50.928;12.116;2023-11-19T02:57:50;98225.66;;;5.00;100.00
18509;BME280;9383;50.928;12.116;2023-11-19T03:00:21;98247.25;;;5.13;100.00
18509;BME280;9383;50.928;12.116;2023-11-19T03:02:58;98148.81;;;4.55;100.00
18509;BME280;9383;50.928;12.116;2023-11-19T03:05:27;98214.13;;;5.05;100.00
18509;BME280;9383;50.928;12.116;2023-11-19T03:07:57;98219.59;;;4.96;100.00
18509;BME280;9383;50.928;12.116;2023-11-19T03:10:23;98274.72;;;5.35;100.00
18509;BME280;9383;50.928;12.116;2023-11-19T03:12:50;98278.19;;;5.38;100.00
18509;BME280;9383;50.928;12.116;2023-11-19T03:15:20;98278.09;;;5.41;100.00
18509;BME280;9383;50.928;12.116;2023-11-19T03:17:47;98169.97;;;4.85;100.00
18509;BME280;9383;50.928;12.116;2023-11-19T03:20:14;98222.50;;;5.21;100.00
18509;BME280;9383;50.928;12.116;2023-11-19T03:22:43;98209.38;;;5.21;100.00
18509;BME280;9383;50.928;12.116;2023-11-19T03:25:10;98247.28;;;5.47;100.00
18509;BME280;9383;50.928;12.116;2023-11-19T03:27:40;97996.25;;;3.97;100.00
18509;BME280;9383;50.928;12.116;2023-11-19T03:30:09;98164.53;;;4.93;100.00
18509;BME280;9383;50.928;12.116;2023-11-19T03:32:38;98173.84;;;5.05;100.00
18509;BME280;9383;50.928;12.116;2023-11-19T03:35:05;98232.72;;;5.34;100.00
18509;BME280;9383;50.928;12.116;2023-11-19T03:37:36;98270.63;;;5.60;100.00
18509;BME280;9383;50.928;12.116;2023-11-19T03:40:03;98046.25;;;4.27;100.00
18509;BME280;9383;50.928;12.116;2023-11-19T03:42:30;98165.31;;;4.97;100.00
18509;BME280;9383;50.928;12.116;2023-11-19T03:44:57;98273.03;;;5.68;100.00
18509;BME280;9383;50.928;12.116;2023-11-19T03:47:24;98243.50;;;5.58;100.00
18509;BME280;9383;50.928;12.116;2023-11-19T03:49:51;98270.25;;;5.74;100.00
18509;BME280;9383;50.928;12.116;2023-11-19T03:52:18;98133.69;;;5.01;100.00
18509;BME280;9383;50.928;12.116;2023-11-19T03:54:45;98247.66;;;5.67;100.00
18509;BME280;9383;50.928;12.116;2023-11-19T03:57:14;98226.81;;;5.59;100.00
18509;BME280;9383;50.928;12.116;2023-11-19T03:59:42;98251.72;;;5.78;100.00
18509;BME280;9383;50.928;12.116;2023-11-19T04:02:09;98250.81;;;5.80;100.00
18509;BME280;9383;50.928;12.116;2023-11-19T04:04:36;98183.28;;;5.48;100.00
18509;BME280;9383;50.928;12.116;2023-11-19T04:07:03;98245.53;;;5.81;100.00
18509;BME280;9383;50.928;12.116;2023-11-19T04:09:29;98068.56;;;4.81;100.00
18509;BME280;9383;50.928;12.116;2023-11-19T04:11:57;98147.00;;;5.28;100.00
18509;BME280;9383;50.928;12.116;2023-11-19T04:14:23;98029.59;;;4.64;100.00
18509;BME280;9383;50.928;12.116;2023-11-19T04:16:49;98232.34;;;5.83;100.00
18509;BME280;9383;50.928;12.116;2023-11-19T04:19:18;98146.00;;;5.34;100.00
18509;BME280;9383;50.928;12.116;2023-11-19T04:21:44;98102.78;;;5.11;100.00
18509;BME280;9383;50.928;12.116;2023-11-19T04:24:10;98127.69;;;5.31;100.00
18509;BME280;9383;50.928;12.116;2023-11-19T04:26:44;98195.88;;;5.69;100.00
18509;BME280;9383;50.928;12.116;2023-11-19T04:29:15;98075.06;;;4.99;100.00
18509;BME280;9383;50.928;12.116;2023-11-19T04:31:46;98216.38;;;5.89;100.00
18509;BME280;9383;50.928;12.116;2023-11-19T04:34:12;98213.75;;;5.89;100.00
18509;BME280;9383;50.928;12.116;2023-11-19T04:36:39;98058.69;;;4.89;100.00
18509;BME280;9383;50.928;12.116;2023-11-19T04:39:05;98155.03;;;5.57;100.00
18509;BME280;9383;50.928;12.116;2023-11-19T04:41:36;98177.59;;;5.64;100.00
18509;BME280;9383;50.928;12.116;2023-11-19T04:44:02;98191.78;;;5.90;100.00
18509;BME280;9383;50.928;12.116;2023-11-19T04:46:29;98067.72;;;5.12;100.00
18509;BME280;9383;50.928;12.116;2023-11-19T04:48:55;98074.59;;;5.18;100.00
18509;BME280;9383;50.928;12.116;2023-11-19T04:51:22;98037.44;;;4.99;100.00
18509;BME280;9383;50.928;12.116;2023-11-19T04:53:48;98116.53;;;5.54;100.00
18509;BME280;9383;50.928;12.116;2023-11-19T04:56:16;98043.09;;;5.16;100.00
18509;BME280;9383;50.928;12.116;2023-11-19T04:58:47;98166.97;;;6.00;100.00
18509;BME280;9383;50.928;12.116;2023-11-19T05:01:15;98168.88;;;5.95;100.00
18509;BME280;9383;50.928;12.116;2023-11-19T05:03:44;98045.22;;;5.35;100.00
18509;BME280;9383;50.928;12.116;2023-11-19T05:06:11;98131.56;;;5.81;100.00
18509;BME280;9383;50.928;12.116;2023-11-19T05:08:44;98164.13;;;6.08;100.00
18509;BME280;9383;50.928;12.116;2023-11-19T05:11:12;98082.22;;;5.59;100.00
18509;BME280;9383;50.928;12.116;2023-11-19T05:13:44;98070.06;;;5.55;100.00
18509;BME280;9383;50.928;12.116;2023-11-19T05:16:12;98112.78;;;5.93;100.00
18509;BME280;9383;50.928;12.116;2023-11-19T05:18:49;98146.38;;;6.15;100.00
18509;BME280;9383;50.928;12.116;2023-11-19T05:21:16;98040.47;;;5.48;100.00
18509;BME280;9383;50.928;12.116;2023-11-19T05:23:44;98117.97;;;5.96;100.00
18509;BME280;9383;50.928;12.116;2023-11-19T05:26:21;98099.13;;;5.82;100.00
18509;BME280;9383;50.928;12.116;2023-11-19T05:28:50;98032.66;;;5.45;100.00
18509;BME280;9383;50.928;12.116;2023-11-19T05:31:18;97984.31;;;5.20;100.00
18509;BME280;9383;50.928;12.116;2023-11-19T05:33:44;98024.78;;;5.45;100.00
18509;BME280;9383;50.928;12.116;2023-11-19T05:36:12;98124.69;;;6.07;100.00
18509;BME280;9383;50.928;12.116;2023-11-19T05:38:39;98134.25;;;6.11;100.00
18509;BME280;9383;50.928;12.116;2023-11-19T05:41:05;98043.50;;;5.64;100.00
18509;BME280;9383;50.928;12.116;2023-11-19T05:43:32;98049.50;;;5.69;100.00
18509;BME280;9383;50.928;12.116;2023-11-19T05:45:58;98119.13;;;6.17;100.00
18509;BME280;9383;50.928;12.116;2023-11-19T05:48:26;97965.47;;;5.36;100.00
18509;BME280;9383;50.928;12.116;2023-11-19T05:50:52;98049.75;;;5.90;100.00
18509;BME280;9383;50.928;12.116;2023-11-19T05:53:19;98025.47;;;5.82;100.00
18509;BME280;9383;50.928;12.116;2023-11-19T05:55:45;98109.97;;;6.29;100.00
18509;BME280;9383;50.928;12.116;2023-11-19T05:58:26;97983.00;;;5.66;100.00
18509;BME280;9383;50.928;12.116;2023-11-19T06:00:56;98079.13;;;6.35;100.00
18509;BME280;9383;50.928;12.116;2023-11-19T06:03:22;98020.38;;;6.05;100.00
18509;BME280;9383;50.928;12.116;2023-11-19T06:05:49;98102.47;;;6.45;100.00
18509;BME280;9383;50.928;12.116;2023-11-19T06:08:16;98056.13;;;6.13;100.00
18509;BME280;9383;50.928;12.116;2023-11-19T06:10:44;98076.34;;;6.11;100.00
18509;BME280;9383;50.928;12.116;2023-11-19T06:13:13;98028.03;;;5.83;100.00
18509;BME280;9383;50.928;12.116;2023-11-19T06:15:42;98106.44;;;6.30;100.00
18509;BME280;9383;50.928;12.116;2023-11-19T06:18:09;98108.38;;;6.25;100.00
18509;BME280;9383;50.928;12.116;2023-11-19T06:20:37;98146.88;;;6.56;100.00
18509;BME280;9383;50.928;12.116;2023-11-19T06:23:04;98087.44;;;6.21;100.00
18509;BME280;9383;50.928;12.116;2023-11-19T06:25:30;98055.47;;;6.04;100.00
18509;BME280;9383;50.928;12.116;2023-11-19T06:27:56;98167.41;;;6.73;100.00
18509;BME280;9383;50.928;12.116;2023-11-19T06:30:23;98113.94;;;6.43;100.00
18509;BME280;9383;50.928;12.116;2023-11-19T06:32:49;98168.09;;;6.80;100.00
18509;BME280;9383;50.928;12.116;2023-11-19T06:35:15;98000.28;;;5.73;100.00
18509;BME280;9383;50.928;12.116;2023-11-19T06:37:41;98056.00;;;6.16;100.00
18509;BME280;9383;50.928;12.116;2023-11-19T06:40:08;98168.16;;;6.79;100.00
18509;BME280;9383;50.928;12.116;2023-11-19T06:42:35;98166.06;;;6.88;100.00
18509;BME280;9383;50.928;12.116;2023-11-19T06:45:03;98103.88;;;6.57;100.00
18509;BME280;9383;50.928;12.116;2023-11-19T06:47:29;98071.25;;;6.35;100.00
18509;BME280;9383;50.928;12.116;2023-11-19T06:49:55;98125.41;;;6.69;100.00
18509;BME280;9383;50.928;12.116;2023-11-19T06:52:23;98058.75;;;6.41;100.00
18509;BME280;9383;50.928;12.116;2023-11-19T06:54:49;98116.53;;;6.73;100.00
18509;BME280;9383;50.928;12.116;2023-11-19T06:57:15;98108.72;;;6.70;100.00
18509;BME280;9383;50.928;12.116;2023-11-19T06:59:42;98148.94;;;7.02;100.00
18509;BME280;9383;50.928;12.116;2023-11-19T07:02:08;98064.59;;;6.50;100.00
18509;BME280;9383;50.928;12.116;2023-11-19T07:04:35;98148.03;;;7.03;100.00
18509;BME280;9383;50.928;12.116;2023-11-19T07:07:01;98047.34;;;6.41;100.00
18509;BME280;9383;50.928;12.116;2023-11-19T07:09:27;98128.31;;;6.88;100.00
18509;BME280;9383;50.928;12.116;2023-11-19T07:11:54;98068.81;;;6.55;100.00
18509;BME280;9383;50.928;12.116;2023-11-19T07:14:20;97989.47;;;6.12;100.00
18509;BME280;9383;50.928;12.116;2023-11-19T07:16:47;98156.56;;;7.11;100.00
18509;BME280;9383;50.928;12.116;2023-11-19T07:19:13;98029.72;;;6.43;100.00
18509;BME280;9383;50.928;12.116;2023-11-19T07:21:42;98117.69;;;6.91;100.00
18509;BME280;9383;50.928;12.116;2023-11-19T07:24:10;98054.66;;;6.59;100.00
18509;BME280;9383;50.928;12.116;2023-11-19T07:26:46;98101.22;;;6.84;100.00
18509;BME280;9383;50.928;12.116;2023-11-19T07:29:15;98053.47;;;6.68;100.00
18509;BME280;9383;50.928;12.116;2023-11-19T07:31:44;98138.53;;;7.24;100.00
18509;BME280;9383;50.928;12.116;2023-11-19T07:34:11;98048.97;;;6.72;100.00
18509;BME280;9383;50.928;12.116;2023-11-19T07:36:38;98092.00;;;6.98;100.00
18509;BME280;9383;50.928;12.116;2023-11-19T07:39:04;98151.84;;;7.46;100.00
18509;BME280;9383;50.928;12.116;2023-11-19T07:41:33;98113.97;;;7.24;100.00
18509;BME280;9383;50.928;12.116;2023-11-19T07:44:00;98063.19;;;6.93;100.00
18509;BME280;9383;50.928;12.116;2023-11-19T07:46:27;98147.84;;;7.35;100.00
18509;BME280;9383;50.928;12.116;2023-11-19T07:48:53;98008.19;;;6.57;100.00
18509;BME280;9383;50.928;12.116;2023-11-19T07:51:19;98019.88;;;6.75;100.00
18509;BME280;9383;50.928;12.116;2023-11-19T07:53:45;98000.25;;;6.58;100.00
18509;BME280;9383;50.928;12.116;2023-11-19T07:56:12;98147.31;;;7.50;100.00
18509;BME280;9383;50.928;12.116;2023-11-19T07:58:38;98146.94;;;7.61;100.00
18509;BME280;9383;50.928;12.116;2023-11-19T08:01:05;98152.50;;;7.77;100.00
18509;BME280;9383;50.928;12.116;2023-11-19T08:03:32;98161.88;;;7.86;100.00
18509;BME280;9383;50.928;12.116;2023-11-19T08:06:01;98169.34;;;7.98;100.00
18509;BME280;9383;50.928;12.116;2023-11-19T08:08:28;98157.59;;;8.07;100.00
18509;BME280;9383;50.928;12.116;2023-11-19T08:10:56;98174.81;;;8.18;100.00
18509;BME280;9383;50.928;12.116;2023-11-19T08:13:26;98167.38;;;8.27;100.00
18509;BME280;9383;50.928;12.116;2023-11-19T08:15:53;98167.88;;;8.37;100.00
18509;BME280;9383;50.928;12.116;2023-11-19T08:18:19;98163.22;;;8.44;100.00
18509;BME280;9383;50.928;12.116;2023-11-19T08:20:46;98161.13;;;8.54;100.00
18509;BME280;9383;50.928;12.116;2023-11-19T08:23:15;98174.03;;;8.62;100.00
18509;BME280;9383;50.928;12.116;2023-11-19T08:25:42;98165.94;;;8.66;100.00
18509;BME280;9383;50.928;12.116;2023-11-19T08:28:08;98171.88;;;8.71;100.00
18509;BME280;9383;50.928;12.116;2023-11-19T08:30:35;98173.44;;;8.77;100.00
18509;BME280;9383;50.928;12.116;2023-11-19T08:33:01;98102.00;;;8.34;100.00
18509;BME280;9383;50.928;12.116;2023-11-19T08:35:32;98174.03;;;8.84;100.00
18509;BME280;9383;50.928;12.116;2023-11-19T08:37:59;98166.91;;;8.86;100.00
18509;BME280;9383;50.928;12.116;2023-11-19T08:40:25;98164.88;;;8.93;100.00
18509;BME280;9383;50.928;12.116;2023-11-19T08:42:52;98165.66;;;8.95;100.00
18509;BME280;9383;50.928;12.116;2023-11-19T08:45:18;98161.06;;;9.00;100.00
18509;BME280;9383;50.928;12.116;2023-11-19T08:47:45;98151.09;;;9.07;100.00
18509;BME280;9383;50.928;12.116;2023-11-19T08:50:12;98150.69;;;9.16;100.00
18509;BME280;9383;50.928;12.116;2023-11-19T08:52:39;98159.13;;;9.26;100.00
18509;BME280;9383;50.928;12.116;2023-11-19T08:55:06;98146.16;;;9.40;100.00
18509;BME280;9383;50.928;12.116;2023-11-19T08:57:33;98149.19;;;9.52;100.00
18509;BME280;9383;50.928;12.116;2023-11-19T08:59:59;98153.09;;;9.64;100.00
18509;BME280;9383;50.928;12.116;2023-11-19T09:02:26;98159.69;;;9.74;100.00
18509;BME280;9383;50.928;12.116;2023-11-19T09:04:53;98155.84;;;9.81;100.00
18509;BME280;9383;50.928;12.116;2023-11-19T09:07:19;98164.28;;;9.90;100.00
18509;BME280;9383;50.928;12.116;2023-11-19T09:09:47;98172.13;;;9.93;100.00
18509;BME280;9383;50.928;12.116;2023-11-19T09:12:14;98176.50;;;9.94;100.00
18509;BME280;9383;50.928;12.116;2023-11-19T09:14:40;98176.34;;;9.97;100.00
18509;BME280;9383;50.928;12.116;2023-11-19T09:17:08;98171.78;;;10.01;100.00
18509;BME280;9383;50.928;12.116;2023-11-19T09:19:36;98169.91;;;10.03;100.00
18509;BME280;9383;50.928;12.116;2023-11-19T09:22:02;98169.91;;;10.03;100.00
18509;BME280;9383;50.928;12.116;2023-11-19T09:24:29;98176.97;;;10.02;100.00
18509;BME280;9383;50.928;12.116;2023-11-19T09:26:55;98183.22;;;10.01;100.00
18509;BME280;9383;50.928;12.116;2023-11-19T09:29:22;98182.28;;;10.02;100.00
18509;BME280;9383;50.928;12.116;2023-11-19T09:31:50;98189.38;;;10.02;100.00
18509;BME280;9383;50.928;12.116;2023-11-19T09:34:16;98174.22;;;10.05;100.00
18509;BME280;9383;50.928;12.116;2023-11-19T09:36:43;98182.94;;;10.07;100.00
18509;BME280;9383;50.928;12.116;2023-11-19T09:39:11;98176.50;;;10.13;100.00
18509;BME280;9383;50.928;12.116;2023-11-19T09:41:39;98180.00;;;10.13;100.00
18509;BME280;9383;50.928;12.116;2023-11-19T09:44:06;98174.50;;;10.18;100.00
18509;BME280;9383;50.928;12.116;2023-11-19T09:46:34;98165.41;;;10.24;100.00
18509;BME280;9383;50.928;12.116;2023-11-19T09:49:02;98164.91;;;10.35;100.00
18509;BME280;9383;50.928;12.116;2023-11-19T09:51:29;98156.56;;;10.44;100.00
18509;BME280;9383;50.928;12.116;2023-11-19T09:53:56;98160.50;;;10.54;100.00
18509;BME280;9383;50.928;12.116;2023-11-19T09:56:23;98159.19;;;10.63;100.00
18509;BME280;9383;50.928;12.116;2023-11-19T09:58:50;98156.97;;;10.73;100.00
18509;BME280;9383;50.928;12.116;2023-11-19T10:01:17;98153.88;;;10.82;100.00
18509;BME280;9383;50.928;12.116;2023-11-19T10:19:01;98159.13;;;11.54;100.00
18509;BME280;9383;50.928;12.116;2023-11-19T10:21:28;98155.16;;;11.63;100.00
18509;BME280;9383;50.928;12.116;2023-11-19T10:23:56;98152.78;;;11.75;100.00
18509;BME280;9383;50.928;12.116;2023-11-19T10:26:24;98147.75;;;11.86;100.00
18509;BME280;9383;50.928;12.116;2023-11-19T10:28:50;98164.94;;;11.96;100.00
18509;BME280;9383;50.928;12.116;2023-11-19T10:31:18;98157.47;;;12.05;100.00
18509;BME280;9383;50.928;12.116;2023-11-19T10:33:45;98159.88;;;12.09;98.37
18509;BME280;9383;50.928;12.116;2023-11-19T10:36:12;98154.31;;;12.14;98.93
18509;BME280;9383;50.928;12.116;2023-11-19T10:38:40;98137.19;;;12.20;98.08
18509;BME280;9383;50.928;12.116;2023-11-19T10:41:07;98140.44;;;12.25;98.03
18509;BME280;9383;50.928;12.116;2023-11-19T10:43:45;98141.13;;;12.29;97.32
18509;BME280;9383;50.928;12.116;2023-11-19T10:46:13;98142.84;;;12.30;96.56
18509;BME280;9383;50.928;12.116;2023-11-19T10:48:41;98141.66;;;12.35;97.22
18509;BME280;9383;50.928;12.116;2023-11-19T10:51:08;98145.91;;;12.38;94.17
18509;BME280;9383;50.928;12.116;2023-11-19T10:53:39;98140.34;;;12.43;91.96
18509;BME280;9383;50.928;12.116;2023-11-19T10:56:13;98157.75;;;12.48;87.55
18509;BME280;9383;50.928;12.116;2023-11-19T10:59:02;98160.09;;;12.55;87.73
18509;BME280;9383;50.928;12.116;2023-11-19T11:01:43;98153.56;;;12.60;88.28
18509;BME280;9383;50.928;12.116;2023-11-19T11:04:14;98158.00;;;12.60;84.75
18509;BME280;9383;50.928;12.116;2023-11-19T11:06:50;98161.44;;;12.62;85.24
18509;BME280;9383;50.928;12.116;2023-11-19T11:09:17;98165.03;;;12.61;82.93
18509;BME280;9383;50.928;12.116;2023-11-19T11:11:47;98150.91;;;12.60;82.91
18509;BME280;9383;50.928;12.116;2023-11-19T11:14:14;98168.75;;;12.58;81.76
18509;BME280;9383;50.928;12.116;2023-11-19T11:16:47;98149.53;;;12.53;81.40
18509;BME280;9383;50.928;12.116;2023-11-19T11:19:16;98149.78;;;12.48;82.01
18509;BME280;9383;50.928;12.116;2023-11-19T11:21:52;98148.50;;;12.40;81.05
18509;BME280;9383;50.928;12.116;2023-11-19T11:25:10;98149.00;;;12.30;80.36
18509;BME280;9383;50.928;12.116;2023-11-19T11:27:45;98156.69;;;12.19;79.96
18509;BME280;9383;50.928;12.116;2023-11-19T11:30:45;98160.22;;;12.19;81.98
18509;BME280;9383;50.928;12.116;2023-11-19T11:33:36;98161.16;;;12.18;83.02
18509;BME280;9383;50.928;12.116;2023-11-19T11:36:19;98169.13;;;12.18;83.39
18509;BME280;9383;50.928;12.116;2023-11-19T11:38:49;98154.91;;;12.19;84.00
18509;BME280;9383;50.928;12.116;2023-11-19T11:43:49;98147.38;;;12.28;85.55
18509;BME280;9383;50.928;12.116;2023-11-19T11:49:03;98143.09;;;12.41;86.83
18509;BME280;9383;50.928;12.116;2023-11-19T11:57:02;98151.34;;;12.52;85.50
18509;BME280;9383;50.928;12.116;2023-11-19T11:59:48;98153.91;;;12.54;85.18
18509;BME280;9383;50.928;12.116;2023-11-19T12:02:20;98149.63;;;12.51;83.69
18509;BME280;9383;50.928;12.116;2023-11-19T12:05:07;98143.53;;;12.49;82.25
18509;BME280;9383;50.928;12.116;2023-11-19T12:07:34;98143.53;;;12.49;83.16
18509;BME280;9383;50.928;12.116;2023-11-19T12:10:21;98145.50;;;12.46;80.96
18509;BME280;9383;50.928;12.116;2023-11-19T12:13:07;98147.31;;;12.45;79.87
18509;BME280;9383;50.928;12.116;2023-11-19T12:18:30;98145.41;;;12.47;77.26
18509;BME280;9383;50.928;12.116;2023-11-19T12:21:00;98142.50;;;12.52;76.67
18509;BME280;9383;50.928;12.116;2023-11-19T12:23:47;98134.44;;;12.54;77.79
18509;BME280;9383;50.928;12.116;2023-11-19T12:26:35;98148.59;;;12.54;77.56
18509;BME280;9383;50.928;12.116;2023-11-19T12:29:02;98146.03;;;12.52;77.24
18509;BME280;9383;50.928;12.116;2023-11-19T12:31:30;98140.78;;;12.51;76.42
18509;BME280;9383;50.928;12.116;2023-11-19T12:33:57;98144.31;;;12.51;76.06
18509;BME280;9383;50.928;12.116;2023-11-19T12:36:24;98145.22;;;12.50;75.36
18509;BME280;9383;50.928;12.116;2023-11-19T12:38:51;98147.81;;;12.52;76.32
18509;BME280;9383;50.928;12.116;2023-11-19T12:41:17;98147.81;;;12.52;75.91
18509;BME280;9383;50.928;12.116;2023-11-19T12:43:47;98152.28;;;12.51;76.84
18509;BME280;9383;50.928;12.116;2023-11-19T12:46:22;98156.66;;;12.52;77.03
18509;BME280;9383;50.928;12.116;2023-11-19T12:48:50;98140.72;;;12.52;76.56
18509;BME280;9383;50.928;12.116;2023-11-19T12:51:18;98136.34;;;12.51;75.23
18509;BME280;9383;50.928;12.116;2023-11-19T12:56:17;98138.81;;;12.55;76.36
18509;BME280;9383;50.928;12.116;2023-11-19T12:58:43;98143.00;;;12.59;76.80
18509;BME280;9383;50.928;12.116;2023-11-19T13:01:19;98140.16;;;12.62;77.63
18509;BME280;9383;50.928;12.116;2023-11-19T13:03:47;98144.47;;;12.64;76.09
18509;BME280;9383;50.928;12.116;2023-11-19T13:06:15;98137.25;;;12.66;74.69
18509;BME280;9383;50.928;12.116;2023-11-19T13:08:45;98143.25;;;12.70;73.76
18509;BME280;9383;50.928;12.116;2023-11-19T13:11:13;98142.91;;;12.76;73.78
18509;BME280;9383;50.928;12.116;2023-11-19T13:13:59;98133.81;;;12.80;72.04
18509;BME280;9383;50.928;12.116;2023-11-19T13:16:27;98141.53;;;12.85;73.11
18509;BME280;9383;50.928;12.116;2023-11-19T13:18:54;98133.13;;;12.93;73.82
18509;BME280;9383;50.928;12.116;2023-11-19T13:21:21;98125.81;;;12.97;73.38
18509;BME280;9383;50.928;12.116;2023-11-19T13:23:47;98127.34;;;13.01;72.68
18509;BME280;9383;50.928;12.116;2023-11-19T13:26:14;98120.31;;;13.00;70.28
18509;BME280;9383;50.928;12.116;2023-11-19T13:28:41;98120.31;;;13.00;71.70
18509;BME280;9383;50.928;12.116;2023-11-19T13:31:08;98119.09;;;13.05;73.04
18509;BME280;9383;50.928;12.116;2023-11-19T13:33:37;98111.81;;;13.09;72.45
18509;BME280;9383;50.928;12.116;2023-11-19T13:36:05;98114.09;;;13.15;73.30
18509;BME280;9383;50.928;12.116;2023-11-19T13:38:55;98120.28;;;13.16;71.53